Time;durP1;ratioP1;P1;durP2;ratioP2;P2;SDS_P1;SDS_P2;PMS_P1;PMS_P2;Temp;Humidity;BMP_temperature;BMP_pressure;BME280_temperature;BME280_humidity;BME280_pressure;Samples;Min_cycle;Max_cycle;Signal;HPM_P1;HPM_P2
2022/04/08 00:01:53;;;;;;;6.35;1.83;;;9.60;88.40;;;;;;5033475;28;20092;-46
2022/04/08 00:04:19;;;;;;;4.78;1.20;;;9.60;88.70;;;;;;5050874;28;20075;-45
2022/04/08 00:06:44;;;;;;;13.75;1.42;;;9.60;88.60;;;;;;5051053;28;20417;-46
2022/04/08 00:09:10;;;;;;;11.10;1.65;;;9.60;89.00;;;;;;5048921;28;20025;-46
2022/04/08 00:11:35;;;;;;;6.22;2.03;;;9.60;89.10;;;;;;5049750;28;20028;-47
2022/04/08 00:14:01;;;;;;;15.90;3.72;;;9.50;89.30;;;;;;5050272;28;20051;-45
2022/04/08 00:16:27;;;;;;;8.93;1.60;;;9.50;89.90;;;;;;5051404;28;20025;-46
2022/04/08 00:18:53;;;;;;;10.48;2.13;;;9.50;90.00;;;;;;5050884;28;20472;-45
2022/04/08 00:21:19;;;;;;;8.18;1.65;;;9.50;90.00;;;;;;5051164;28;20108;-47
2022/04/08 00:23:45;;;;;;;8.20;2.17;;;9.40;90.20;;;;;;5049904;28;20114;-45
2022/04/08 00:26:11;;;;;;;16.92;3.72;;;9.40;90.30;;;;;;5052447;28;20036;-46
2022/04/08 00:28:36;;;;;;;16.13;2.85;;;9.40;90.30;;;;;;5054882;28;20025;-46
2022/04/08 00:31:04;;;;;;;9.30;2.03;;;9.40;90.40;;;;;;5054995;28;20025;-44
2022/04/08 00:33:32;;;;;;;7.68;1.55;;;9.30;90.30;;;;;;5055062;28;20092;-45
2022/04/08 00:35:57;;;;;;;10.02;2.00;;;9.40;90.60;;;;;;5055110;28;20029;-46
2022/04/08 00:38:22;;;;;;;7.03;1.58;;;9.40;90.50;;;;;;5054741;28;20071;-45
2022/04/08 00:40:48;;;;;;;11.43;1.67;;;9.40;90.60;;;;;;5054874;28;20040;-45
2022/04/08 00:43:16;;;;;;;8.98;2.10;;;9.40;90.70;;;;;;5054871;28;20107;-44
2022/04/08 00:45:42;;;;;;;6.82;1.88;;;9.40;90.90;;;;;;5055233;28;20226;-43
2022/04/08 00:48:09;;;;;;;5.93;1.70;;;9.30;90.90;;;;;;5055216;28;20021;-45
2022/04/08 00:50:39;;;;;;;9.68;2.78;;;9.30;91.10;;;;;;5055214;28;20025;-46
2022/04/08 00:53:05;;;;;;;4.72;1.98;;;9.30;91.20;;;;;;5054640;28;20021;-45
2022/04/08 00:55:31;;;;;;;20.38;2.75;;;9.30;91.30;;;;;;5054836;28;20024;-44
2022/04/08 00:58:01;;;;;;;8.85;2.83;;;9.30;91.60;;;;;;5053392;28;20032;-46
2022/04/08 01:00:30;;;;;;;5.75;1.27;;;9.30;91.80;;;;;;5055164;28;20381;-46
2022/04/08 01:02:56;;;;;;;7.45;2.03;;;9.30;91.80;;;;;;5054615;28;20024;-46
2022/04/08 01:05:21;;;;;;;9.23;1.55;;;9.20;92.00;;;;;;5053992;28;20055;-47
2022/04/08 01:07:47;;;;;;;8.45;2.03;;;9.20;92.10;;;;;;5054202;28;20028;-47
2022/04/08 01:10:12;;;;;;;13.15;2.28;;;9.20;92.20;;;;;;5053132;28;20021;-48
2022/04/08 01:12:38;;;;;;;7.95;2.70;;;9.20;92.40;;;;;;5054372;28;20083;-45
2022/04/08 01:15:04;;;;;;;8.55;1.83;;;9.10;92.40;;;;;;5054263;28;20095;-49
2022/04/08 01:17:29;;;;;;;8.23;1.98;;;9.20;92.40;;;;;;5054100;28;20021;-45
2022/04/08 01:19:54;;;;;;;8.57;2.10;;;9.10;92.50;;;;;;5054213;28;20024;-47
2022/04/08 01:25:42;;;;;;;5.13;1.52;;;9.10;92.80;;;;;;5052599;28;20071;-45
2022/04/08 01:28:07;;;;;;;10.80;2.17;;;9.10;92.90;;;;;;5054079;28;20033;-45
2022/04/08 01:30:33;;;;;;;14.05;2.17;;;9.00;92.90;;;;;;5053914;28;20037;-48
2022/04/08 01:32:58;;;;;;;9.20;1.92;;;9.10;93.00;;;;;;5053976;28;20017;-45
2022/04/08 01:35:24;;;;;;;6.05;1.75;;;9.10;93.10;;;;;;5052640;28;20021;-44
2022/04/08 01:37:50;;;;;;;7.80;2.28;;;9.00;93.20;;;;;;5053004;28;20021;-45
2022/04/08 01:40:17;;;;;;;18.42;2.28;;;9.00;93.20;;;;;;5053754;28;20407;-46
2022/04/08 01:42:42;;;;;;;9.10;1.92;;;9.00;93.30;;;;;;5053860;28;20017;-48
2022/04/08 01:45:09;;;;;;;14.88;2.15;;;9.00;93.50;;;;;;5054491;28;20032;-44
2022/04/08 01:47:34;;;;;;;6.78;2.10;;;9.00;93.60;;;;;;5053674;28;20488;-46
2022/04/08 01:50:00;;;;;;;11.30;1.80;;;8.90;93.60;;;;;;5053781;28;20056;-45
2022/04/08 01:52:25;;;;;;;5.95;2.05;;;8.90;94.00;;;;;;5053590;28;20104;-46
2022/04/08 01:54:51;;;;;;;11.00;1.90;;;8.90;93.80;;;;;;5052438;28;20443;-46
2022/04/08 01:57:18;;;;;;;10.05;1.83;;;8.90;93.90;;;;;;5054177;28;20507;-46
2022/04/08 01:59:44;;;;;;;13.40;2.03;;;8.90;94.00;;;;;;5054170;28;20021;-44
2022/04/08 02:02:09;;;;;;;15.07;1.90;;;8.80;94.00;;;;;;5054062;28;20090;-44
2022/04/08 02:04:35;;;;;;;15.88;3.65;;;8.80;94.30;;;;;;5053849;28;20052;-47
2022/04/08 02:07:02;;;;;;;13.00;2.13;;;8.80;94.70;;;;;;5055164;28;20028;-46
2022/04/08 02:09:27;;;;;;;13.52;2.83;;;8.90;94.40;;;;;;5055588;28;20544;-45
2022/04/08 02:11:53;;;;;;;8.95;1.88;;;8.80;94.50;;;;;;5053297;28;20036;-43
2022/04/08 02:14:18;;;;;;;13.90;1.90;;;8.80;94.50;;;;;;5053225;28;20025;-46
2022/04/08 02:16:44;;;;;;;10.00;1.90;;;8.70;94.50;;;;;;5052021;28;20028;-46
2022/04/08 02:19:10;;;;;;;11.60;2.47;;;8.70;94.60;;;;;;5052980;28;20028;-46
2022/04/08 02:21:35;;;;;;;6.85;1.58;;;8.80;94.60;;;;;;5053203;28;20029;-45
2022/04/08 02:24:03;;;;;;;9.57;3.90;;;8.80;94.60;;;;;;5053102;28;20053;-47
2022/04/08 02:26:28;;;;;;;8.88;1.70;;;8.80;94.70;;;;;;5053006;28;20029;-45
2022/04/08 02:28:54;;;;;;;13.25;2.40;;;8.70;95.00;;;;;;5052833;28;20032;-46
2022/04/08 02:31:20;;;;;;;12.30;2.55;;;8.80;95.00;;;;;;5051524;28;20523;-44
2022/04/08 02:33:45;;;;;;;16.50;2.63;;;8.70;95.10;;;;;;5052830;28;20374;-45
2022/04/08 02:36:11;;;;;;;12.90;2.33;;;8.70;95.30;;;;;;5052876;28;20017;-45
2022/04/08 02:38:36;;;;;;;8.63;1.98;;;8.70;95.40;;;;;;5052510;28;20096;-45
2022/04/08 02:41:02;;;;;;;11.60;2.25;;;8.70;95.60;;;;;;5052621;28;20035;-44
2022/04/08 02:43:27;;;;;;;11.52;2.42;;;8.60;95.70;;;;;;5052629;28;20032;-44
2022/04/08 02:45:53;;;;;;;10.48;1.98;;;8.60;95.90;;;;;;5052916;28;20097;-46
2022/04/08 02:48:18;;;;;;;10.50;2.33;;;8.60;96.00;;;;;;5052319;28;20025;-45
2022/04/08 02:50:44;;;;;;;8.95;2.72;;;8.70;96.10;;;;;;5051304;28;20024;-46
2022/04/08 02:53:10;;;;;;;15.85;2.47;;;8.60;96.20;;;;;;5052432;28;20025;-44
2022/04/08 02:55:35;;;;;;;10.35;2.50;;;8.70;96.10;;;;;;5052367;28;20104;-45
2022/04/08 02:58:02;;;;;;;10.05;2.75;;;8.70;96.20;;;;;;5052169;28;20021;-46
2022/04/08 03:00:28;;;;;;;6.50;1.70;;;8.60;96.30;;;;;;5052517;28;20025;-49
2022/04/08 03:02:53;;;;;;;7.00;1.98;;;8.60;96.50;;;;;;5052385;28;20024;-44
2022/04/08 03:05:19;;;;;;;15.07;2.95;;;8.60;96.60;;;;;;5051856;28;20140;-47
2022/04/08 03:07:45;;;;;;;10.35;2.08;;;8.60;96.70;;;;;;5052310;28;20079;-48
2022/04/08 03:10:11;;;;;;;19.65;2.88;;;8.60;96.80;;;;;;5051967;28;20025;-46
2022/04/08 03:12:37;;;;;;;10.20;2.03;;;8.60;96.90;;;;;;5052042;28;20032;-45
2022/04/08 03:15:04;;;;;;;11.00;2.10;;;8.60;97.10;;;;;;5052037;28;20033;-47
2022/04/08 03:17:29;;;;;;;7.88;2.38;;;8.70;97.10;;;;;;5051794;28;20017;-46
2022/04/08 03:19:56;;;;;;;8.77;2.55;;;8.70;97.40;;;;;;5051968;28;20025;-46
2022/04/08 03:22:22;;;;;;;11.95;2.08;;;8.60;97.60;;;;;;5051988;28;20033;-45
2022/04/08 03:24:49;;;;;;;7.10;2.10;;;8.70;97.70;;;;;;5033929;28;20051;-43
2022/04/08 03:27:15;;;;;;;4.95;2.42;;;8.70;97.90;;;;;;5051696;28;20025;-45
2022/04/08 03:29:41;;;;;;;7.68;1.75;;;8.60;99.60;;;;;;5051846;28;20032;-45
2022/04/08 03:32:07;;;;;;;5.78;1.75;;;8.60;99.90;;;;;;5052162;28;20029;-46
2022/04/08 03:34:33;;;;;;;4.78;1.35;;;8.50;99.90;;;;;;5051896;28;20032;-46
2022/04/08 03:36:58;;;;;;;4.70;1.08;;;8.50;99.90;;;;;;5051543;28;20032;-44
2022/04/08 03:42:46;;;;;;;3.22;0.90;;;8.20;99.90;;;;;;5049623;28;20071;-45
2022/04/08 03:45:13;;;;;;;4.00;1.60;;;8.20;99.90;;;;;;5051680;28;20047;-44
2022/04/08 03:47:39;;;;;;;3.55;1.30;;;8.20;99.90;;;;;;5051350;28;20017;-45
2022/04/08 03:50:05;;;;;;;1.55;1.30;;;8.20;99.90;;;;;;5051573;28;20021;-44
2022/04/08 03:52:32;;;;;;;2.65;0.88;;;8.10;99.90;;;;;;5051187;28;20029;-46
2022/04/08 03:54:59;;;;;;;1.77;1.10;;;8.20;99.90;;;;;;5051452;28;20017;-48
2022/04/08 03:57:25;;;;;;;2.28;1.13;;;8.20;99.90;;;;;;5051289;28;20021;-45
2022/04/08 03:59:51;;;;;;;2.20;1.02;;;8.20;99.90;;;;;;5033669;28;20025;-45
2022/04/08 04:02:16;;;;;;;5.38;1.48;;;8.20;99.90;;;;;;5051092;28;20063;-44
2022/04/08 04:04:42;;;;;;;4.28;1.17;;;8.20;99.90;;;;;;5051044;28;20477;-46
2022/04/08 04:07:08;;;;;;;3.20;0.98;;;8.20;99.90;;;;;;5050907;28;20041;-44
2022/04/08 04:09:33;;;;;;;2.17;0.90;;;8.20;99.90;;;;;;5051588;28;20400;-45
2022/04/08 04:11:59;;;;;;;2.83;1.05;;;8.30;99.90;;;;;;5051370;28;20477;-45
2022/04/08 04:14:25;;;;;;;1.40;1.30;;;8.40;99.90;;;;;;5051396;28;20096;-44
2022/04/08 04:16:50;;;;;;;3.85;0.90;;;8.30;99.90;;;;;;5051257;28;20017;-44
2022/04/08 04:19:17;;;;;;;3.63;1.10;;;8.40;99.90;;;;;;5051331;28;20032;-45
2022/04/08 04:21:43;;;;;;;7.50;1.75;;;8.40;99.90;;;;;;5051331;28;20074;-45
2022/04/08 04:24:08;;;;;;;4.43;1.27;;;8.40;99.90;;;;;;5052320;28;20037;-45
2022/04/08 04:26:34;;;;;;;2.03;1.02;;;8.50;99.90;;;;;;5052287;28;20028;-45
2022/04/08 04:29:00;;;;;;;3.65;0.75;;;8.40;99.90;;;;;;5052127;28;20025;-46
2022/04/08 04:31:26;;;;;;;2.47;1.05;;;8.40;99.90;;;;;;5052466;28;20025;-46
2022/04/08 04:33:51;;;;;;;6.55;1.55;;;8.40;99.90;;;;;;5052346;28;20021;-44
2022/04/08 04:36:17;;;;;;;4.65;1.20;;;8.30;99.90;;;;;;5051268;28;20500;-45
2022/04/08 04:38:42;;;;;;;4.85;1.27;;;8.20;99.90;;;;;;5051072;28;20150;-45
2022/04/08 04:41:09;;;;;;;2.17;1.55;;;8.20;99.90;;;;;;5070671;23;20529;-45
2022/04/08 04:43:35;;;;;;;4.13;1.60;;;8.10;99.90;;;;;;5051159;28;20508;-45
2022/04/08 04:46:03;;;;;;;5.75;1.80;;;7.90;99.90;;;;;;5051259;28;20048;-43
2022/04/08 04:48:28;;;;;;;3.75;1.20;;;7.90;99.90;;;;;;5050900;28;20017;-44
2022/04/08 04:50:54;;;;;;;3.75;1.40;;;7.80;99.90;;;;;;5051011;28;20507;-42
2022/04/08 04:53:20;;;;;;;6.20;1.70;;;7.70;99.90;;;;;;5051408;28;20544;-44
2022/04/08 04:55:45;;;;;;;2.25;1.30;;;7.60;99.90;;;;;;5051188;28;20021;-38
2022/04/08 04:58:11;;;;;;;3.42;1.10;;;7.60;99.90;;;;;;5049525;28;20021;-44
2022/04/08 05:00:36;;;;;;;3.13;1.20;;;7.60;99.90;;;;;;5050986;28;20391;-44
2022/04/08 05:03:02;;;;;;;4.30;1.20;;;7.60;99.90;;;;;;5050658;28;20013;-48
2022/04/08 05:05:27;;;;;;;2.95;1.02;;;7.60;99.90;;;;;;5050939;28;20079;-39
2022/04/08 05:07:53;;;;;;;2.08;1.10;;;7.60;99.90;;;;;;5049498;28;20024;-43
2022/04/08 05:10:18;;;;;;;5.78;1.60;;;7.70;99.90;;;;;;5050963;28;20017;-48
2022/04/08 05:12:44;;;;;;;9.05;2.72;;;7.80;99.90;;;;;;5050936;28;20060;-44
2022/04/08 05:15:11;;;;;;;9.27;2.38;;;7.80;99.90;;;;;;5051122;28;20021;-48
2022/04/08 05:17:37;;;;;;;14.85;2.40;;;8.10;99.90;;;;;;5054044;28;20131;-48
2022/04/08 05:20:03;;;;;;;13.60;2.08;;;8.10;99.90;;;;;;5054410;28;20025;-49
2022/04/08 05:22:29;;;;;;;7.35;2.20;;;8.10;99.90;;;;;;5054225;28;20509;-45
2022/04/08 05:24:54;;;;;;;7.40;2.13;;;8.20;99.90;;;;;;5054221;28;20040;-46
2022/04/08 05:27:20;;;;;;;10.50;2.25;;;8.10;99.90;;;;;;5053824;28;20048;-44
2022/04/08 05:29:45;;;;;;;10.63;2.53;;;8.10;99.90;;;;;;5053272;28;20036;-46
2022/04/08 05:32:11;;;;;;;9.05;2.35;;;8.20;99.90;;;;;;5054024;28;20029;-47
2022/04/08 05:34:36;;;;;;;9.00;2.38;;;8.20;99.90;;;;;;5054377;28;20257;-46
2022/04/08 05:37:02;;;;;;;12.50;2.28;;;8.20;99.90;;;;;;5054082;28;20049;-45
2022/04/08 05:39:27;;;;;;;6.68;1.98;;;8.10;99.90;;;;;;5054692;28;20035;-49
2022/04/08 05:41:53;;;;;;;10.32;2.13;;;8.10;99.90;;;;;;5053892;28;20040;-47
2022/04/08 05:44:18;;;;;;;13.10;3.70;;;8.10;99.90;;;;;;5036007;28;20021;-44
2022/04/08 05:46:44;;;;;;;12.60;2.97;;;8.10;99.90;;;;;;5053299;28;20392;-41
2022/04/08 05:49:09;;;;;;;22.05;5.13;;;8.10;99.90;;;;;;5053218;28;20098;-47
2022/04/08 05:51:35;;;;;;;11.23;3.10;;;8.10;99.90;;;;;;5053869;28;20397;-46
2022/04/08 05:54:00;;;;;;;7.47;2.05;;;8.20;99.90;;;;;;5053411;28;20044;-44
2022/04/08 05:56:26;;;;;;;18.17;3.47;;;8.10;99.90;;;;;;5053605;28;20025;-45
2022/04/08 05:58:51;;;;;;;6.75;2.20;;;8.20;99.90;;;;;;5053082;28;20392;-40
2022/04/08 06:01:17;;;;;;;7.75;1.85;;;8.10;99.90;;;;;;5053797;28;20021;-47
2022/04/08 06:03:42;;;;;;;14.82;3.75;;;8.10;99.90;;;;;;5053595;28;20404;-42
2022/04/08 06:06:08;;;;;;;9.07;1.90;;;8.10;99.90;;;;;;5053619;28;20029;-47
2022/04/08 06:08:34;;;;;;;7.60;2.20;;;8.10;99.90;;;;;;5052223;28;20017;-45
2022/04/08 06:10:59;;;;;;;13.73;3.03;;;8.10;99.90;;;;;;5053087;28;20480;-45
2022/04/08 06:13:26;;;;;;;9.98;1.92;;;8.10;99.90;;;;;;5053478;28;20052;-49
2022/04/08 06:15:55;;;;;;;15.05;3.97;;;8.10;99.90;;;;;;5053570;28;20020;-48
2022/04/08 06:18:21;;;;;;;14.23;3.13;;;8.10;99.90;;;;;;5053086;28;20017;-46
2022/04/08 06:20:46;;;;;;;11.77;2.67;;;8.10;99.90;;;;;;5053322;28;20044;-40
2022/04/08 06:23:12;;;;;;;9.50;2.40;;;8.20;99.90;;;;;;5054053;28;20043;-44
2022/04/08 06:25:38;;;;;;;7.07;2.05;;;8.10;99.90;;;;;;5055005;28;20039;-44
2022/04/08 06:28:05;;;;;;;15.85;3.40;;;8.20;99.90;;;;;;5053013;28;20060;-40
2022/04/08 06:30:39;;;;;;;21.65;3.53;;;8.30;99.90;;;;;;5053159;28;20049;-46
2022/04/08 06:33:07;;;;;;;16.95;3.83;;;8.30;99.90;;;;;;5053016;28;20029;-41
2022/04/08 06:35:33;;;;;;;8.05;3.47;;;8.40;99.90;;;;;;5053567;28;20045;-45
2022/04/08 06:38:00;;;;;;;11.57;3.05;;;8.50;99.90;;;;;;5054963;28;20021;-44
2022/04/08 06:40:31;;;;;;;8.63;2.25;;;8.50;99.90;;;;;;5055056;28;20028;-45
2022/04/08 06:42:59;;;;;;;18.20;2.92;;;8.60;99.90;;;;;;5055120;28;20013;-42
2022/04/08 06:45:26;;;;;;;11.82;2.75;;;8.60;99.90;;;;;;5053326;28;20123;-45
2022/04/08 06:47:52;;;;;;;12.43;2.28;;;8.60;99.90;;;;;;5052836;28;20020;-46
2022/04/08 06:50:18;;;;;;;7.13;2.20;;;8.50;99.90;;;;;;5052833;28;20029;-45
2022/04/08 06:52:44;;;;;;;10.80;2.85;;;8.50;99.90;;;;;;5034819;28;20500;-46
2022/04/08 06:55:10;;;;;;;15.00;3.80;;;8.50;99.90;;;;;;5052576;28;20087;-40
2022/04/08 06:57:35;;;;;;;11.38;2.78;;;8.50;99.90;;;;;;5052376;28;20031;-45
2022/04/08 07:00:06;;;;;;;4.80;2.20;;;8.50;99.90;;;;;;5034559;28;20021;-46
2022/04/08 07:02:32;;;;;;;12.73;2.95;;;8.50;99.90;;;;;;5052536;28;20075;-47
2022/04/08 07:04:57;;;;;;;12.43;2.55;;;8.50;99.90;;;;;;5051131;28;20021;-46
2022/04/08 07:07:28;;;;;;;7.35;2.33;;;8.50;99.90;;;;;;5052209;28;20029;-45
2022/04/08 07:09:56;;;;;;;11.77;2.55;;;8.50;99.90;;;;;;5051756;28;20048;-45
2022/04/08 07:12:23;;;;;;;8.88;2.63;;;8.60;99.90;;;;;;5052499;28;20039;-40
2022/04/08 07:14:48;;;;;;;12.45;2.85;;;8.60;99.90;;;;;;5049749;28;20510;-41
2022/04/08 07:17:14;;;;;;;10.50;2.47;;;8.70;99.90;;;;;;5034265;28;20145;-47
2022/04/08 07:19:40;;;;;;;14.98;4.32;;;8.80;99.90;;;;;;5050293;28;20089;-45
2022/04/08 07:22:05;;;;;;;8.55;2.58;;;8.90;99.90;;;;;;5052094;28;20033;-44
2022/04/08 07:24:31;;;;;;;9.93;2.75;;;9.00;99.90;;;;;;5030301;28;20061;-45
2022/04/08 07:26:56;;;;;;;9.93;2.55;;;9.00;99.90;;;;;;5051764;28;20028;-44
2022/04/08 07:29:22;;;;;;;9.38;2.72;;;8.90;99.90;;;;;;5050905;28;20187;-47
2022/04/08 07:31:47;;;;;;;9.82;2.88;;;9.00;99.90;;;;;;5050133;28;20112;-45
2022/04/08 07:34:13;;;;;;;12.05;2.50;;;8.90;99.90;;;;;;5051613;28;20429;-46
2022/04/08 07:36:38;;;;;;;13.25;3.40;;;9.00;99.90;;;;;;5051522;28;20500;-46
2022/04/08 07:39:04;;;;;;;12.30;3.20;;;9.00;99.90;;;;;;5049019;28;20488;-47
2022/04/08 07:41:29;;;;;;;13.15;3.03;;;9.00;99.90;;;;;;5051621;28;20115;-47
2022/04/08 07:43:55;;;;;;;12.18;3.08;;;9.00;99.90;;;;;;5051680;28;20036;-52
2022/04/08 07:46:21;;;;;;;16.98;4.05;;;9.00;99.90;;;;;;5051012;28;20031;-44
2022/04/08 07:48:46;;;;;;;12.93;2.53;;;9.00;99.90;;;;;;5040810;28;20059;-43
2022/04/08 07:51:12;;;;;;;11.80;3.28;;;9.00;99.90;;;;;;5051398;28;20083;-43
2022/04/08 07:53:38;;;;;;;10.73;3.53;;;9.00;99.90;;;;;;5052381;28;20125;-45
2022/04/08 07:56:03;;;;;;;12.20;2.65;;;9.00;99.90;;;;;;5050578;28;20116;-43
2022/04/08 07:58:29;;;;;;;9.77;2.40;;;9.10;99.90;;;;;;5051018;28;20024;-43
2022/04/08 08:00:55;;;;;;;14.07;2.97;;;9.10;99.90;;;;;;5050602;28;20047;-44
2022/04/08 08:03:20;;;;;;;18.58;6.40;;;9.10;99.90;;;;;;5051825;28;20025;-49
2022/04/08 08:05:46;;;;;;;15.30;5.07;;;9.20;99.90;;;;;;5050601;28;20029;-43
2022/04/08 08:08:11;;;;;;;17.88;3.90;;;9.20;99.90;;;;;;5049191;28;20396;-43
2022/04/08 08:10:38;;;;;;;12.98;3.17;;;9.10;99.90;;;;;;5050810;28;20496;-44
2022/04/08 08:13:04;;;;;;;12.45;3.33;;;9.10;99.90;;;;;;5051423;28;20021;-45
2022/04/08 08:15:32;;;;;;;9.90;3.08;;;9.10;99.90;;;;;;5051255;28;20025;-44
2022/04/08 08:17:58;;;;;;;16.15;3.75;;;9.10;99.90;;;;;;5051054;28;20013;-41
2022/04/08 08:20:25;;;;;;;12.52;3.47;;;9.10;99.90;;;;;;5051774;28;20384;-45
2022/04/08 08:22:51;;;;;;;21.67;3.25;;;9.20;99.90;;;;;;5052626;28;20059;-45
2022/04/08 08:25:18;;;;;;;11.20;3.47;;;9.20;99.90;;;;;;5052864;28;20118;-47
2022/04/08 08:27:51;;;;;;;14.43;2.72;;;9.20;99.90;;;;;;5051969;28;20156;-44
2022/04/08 08:30:17;;;;;;;22.95;5.38;;;9.30;99.90;;;;;;5050326;28;20439;-49
2022/04/08 08:32:44;;;;;;;10.85;2.97;;;9.40;99.90;;;;;;5051721;28;20050;-44
2022/04/08 08:35:12;;;;;;;12.52;3.88;;;9.40;99.90;;;;;;5056121;28;20400;-48
2022/04/08 08:37:38;;;;;;;8.80;3.05;;;9.40;99.90;;;;;;5051467;28;20017;-47
2022/04/08 08:40:05;;;;;;;14.98;2.97;;;9.40;99.90;;;;;;5033332;28;20021;-48
2022/04/08 08:42:32;;;;;;;7.80;3.67;;;9.40;99.90;;;;;;5049614;28;20033;-47
2022/04/08 08:44:58;;;;;;;11.63;3.03;;;9.40;99.90;;;;;;5050281;28;20493;-46
2022/04/08 08:47:27;;;;;;;13.93;3.13;;;9.60;99.90;;;;;;5052147;28;20281;-47
2022/04/08 08:49:53;;;;;;;13.30;3.92;;;9.60;99.90;;;;;;5054939;28;20025;-47
2022/04/08 08:52:19;;;;;;;16.45;3.53;;;9.60;99.90;;;;;;5037782;28;20404;-44
2022/04/08 08:54:46;;;;;;;13.65;3.50;;;9.70;99.90;;;;;;5037579;28;20555;-45
2022/04/08 08:57:17;;;;;;;9.32;3.80;;;9.70;99.90;;;;;;5054541;28;20033;-45
2022/04/08 08:59:44;;;;;;;9.98;4.28;;;9.70;99.90;;;;;;5037058;28;20017;-44
2022/04/08 09:02:12;;;;;;;14.68;3.58;;;9.70;99.90;;;;;;5054791;28;20051;-43
2022/04/08 09:04:42;;;;;;;18.27;4.32;;;9.80;99.90;;;;;;5054052;28;20064;-45
2022/04/08 09:07:28;;;;;;;10.88;4.10;;;9.80;99.90;;;;;;5054285;28;20036;-47
2022/04/08 09:09:56;;;;;;;14.52;4.43;;;9.80;99.90;;;;;;5054578;28;20071;-47
2022/04/08 09:12:24;;;;;;;14.07;3.60;;;9.70;99.90;;;;;;5054403;28;20120;-46
2022/04/08 09:14:51;;;;;;;13.45;5.10;;;9.70;99.90;;;;;;5054457;28;20024;-48
2022/04/08 09:17:18;;;;;;;9.82;3.30;;;9.60;99.90;;;;;;5036351;28;20060;-45
2022/04/08 09:19:55;;;;;;;14.20;4.45;;;9.50;99.90;;;;;;5054708;28;20040;-44
2022/04/08 09:22:25;;;;;;;18.52;3.42;;;9.40;99.90;;;;;;5054585;28;20025;-43
2022/04/08 09:24:51;;;;;;;18.13;3.22;;;9.40;99.90;;;;;;5054480;28;20071;-43
2022/04/08 09:27:17;;;;;;;9.50;3.30;;;9.30;99.90;;;;;;5054156;28;20037;-44
2022/04/08 09:29:44;;;;;;;5.82;2.00;;;9.20;99.90;;;;;;5054527;28;20032;-46
2022/04/08 09:32:11;;;;;;;16.38;2.78;;;9.00;99.90;;;;;;5054060;28;20086;-44
2022/04/08 09:34:38;;;;;;;7.82;1.90;;;8.90;99.90;;;;;;5054126;28;20396;-43
2022/04/08 09:37:10;;;;;;;11.40;2.13;;;8.90;99.90;;;;;;5054073;28;20017;-44
2022/04/08 09:39:55;;;;;;;6.03;2.05;;;8.90;99.90;;;;;;5054265;28;20511;-43
2022/04/08 09:42:21;;;;;;;8.70;2.63;;;8.70;99.90;;;;;;5034677;28;20068;-43
2022/04/08 09:44:47;;;;;;;7.82;2.47;;;8.70;99.90;;;;;;5034089;28;20343;-43
2022/04/08 09:47:13;;;;;;;2.83;1.45;;;8.70;99.90;;;;;;5053453;28;20056;-46
2022/04/08 09:49:39;;;;;;;5.60;2.08;;;8.50;99.90;;;;;;5053657;28;20064;-43
2022/04/08 09:52:07;;;;;;;6.72;2.35;;;8.50;99.90;;;;;;5053694;28;20036;-45
2022/04/08 09:54:33;;;;;;;40.97;19.65;;;8.50;99.90;;;;;;5053829;28;20050;-43
2022/04/08 09:57:00;;;;;;;11.02;3.83;;;8.60;99.90;;;;;;5053297;28;20048;-50
2022/04/08 09:59:30;;;;;;;15.20;4.15;;;8.60;99.90;;;;;;5054060;28;20036;-51
2022/04/08 10:01:58;;;;;;;8.80;2.40;;;8.60;99.90;;;;;;5052319;28;20389;-46
2022/04/08 10:04:25;;;;;;;7.57;1.92;;;8.60;99.90;;;;;;5053342;28;20512;-49
2022/04/08 10:06:50;;;;;;;5.97;1.63;;;8.50;99.90;;;;;;5053350;28;20030;-47
2022/04/08 10:09:19;;;;;;;6.80;3.08;;;8.40;99.90;;;;;;5052494;28;20151;-45
2022/04/08 10:11:51;;;;;;;5.97;1.05;;;8.40;99.90;;;;;;5033465;28;20021;-55
2022/04/08 10:14:29;;;;;;;1.73;0.80;;;8.30;99.90;;;;;;5060357;28;20031;-47
2022/04/08 10:16:56;;;;;;;2.85;0.90;;;8.30;99.90;;;;;;5052150;28;20048;-53
2022/04/08 10:19:23;;;;;;;4.10;1.40;;;8.20;99.90;;;;;;5049642;28;20013;-51
2022/04/08 10:21:53;;;;;;;4.22;1.02;;;8.30;99.90;;;;;;5053053;28;20508;-49
2022/04/08 10:24:27;;;;;;;10.77;1.80;;;8.20;99.90;;;;;;5051335;28;20029;-47
2022/04/08 10:27:08;;;;;;;9.77;1.75;;;8.20;99.90;;;;;;5052872;28;20489;-49
2022/04/08 10:29:35;;;;;;;11.38;2.85;;;8.20;99.90;;;;;;5052396;28;20083;-53
2022/04/08 10:32:12;;;;;;;6.68;1.70;;;8.20;99.90;;;;;;5052940;28;20511;-41
2022/04/08 10:34:37;;;;;;;7.43;1.88;;;8.20;99.90;;;;;;5052858;28;20024;-49
2022/04/08 10:37:15;;;;;;;4.95;1.88;;;8.20;99.90;;;;;;5052697;28;20021;-46
2022/04/08 10:39:42;;;;;;;5.78;1.77;;;8.10;99.90;;;;;;5052681;28;20032;-53
2022/04/08 10:42:20;;;;;;;4.75;2.33;;;8.10;99.90;;;;;;5051717;23;20091;-48
2022/04/08 10:44:45;;;;;;;6.80;2.78;;;8.10;99.90;;;;;;5032792;28;20029;-50
2022/04/08 10:47:16;;;;;;;8.32;2.72;;;8.10;99.90;;;;;;5032960;28;20113;-52
2022/04/08 10:50:01;;;;;;;7.40;2.50;;;8.00;99.90;;;;;;5033385;28;20503;-50
2022/04/08 10:52:29;;;;;;;8.98;2.13;;;7.90;99.90;;;;;;5031265;28;20032;-51
2022/04/08 10:55:10;;;;;;;7.13;1.80;;;7.90;99.90;;;;;;5032478;28;20025;-51
2022/04/08 10:57:38;;;;;;;4.22;2.03;;;7.80;99.90;;;;;;5032476;28;20029;-51
2022/04/08 11:00:12;;;;;;;7.15;2.05;;;7.70;99.90;;;;;;5030853;28;20026;-53
2022/04/08 11:02:39;;;;;;;7.18;2.47;;;7.70;99.90;;;;;;5047716;28;20029;-48
2022/04/08 11:05:10;;;;;;;9.48;2.40;;;7.60;99.90;;;;;;5032191;28;20057;-48
2022/04/08 11:07:43;;;;;;;8.32;2.03;;;7.60;99.90;;;;;;5047085;28;20457;-51
2022/04/08 11:10:10;;;;;;;6.28;2.20;;;7.60;99.90;;;;;;5047507;28;20087;-55
2022/04/08 11:12:50;;;;;;;3.58;2.20;;;7.60;99.90;;;;;;5047193;28;20435;-51
2022/04/08 11:15:21;;;;;;;7.55;2.47;;;7.70;99.90;;;;;;5047640;28;20080;-49
2022/04/08 11:17:47;;;;;;;9.15;2.70;;;7.70;99.90;;;;;;5032506;28;20029;-54
2022/04/08 11:20:14;;;;;;;4.68;2.58;;;7.70;99.90;;;;;;5031345;28;20028;-52
2022/04/08 11:22:41;;;;;;;5.22;2.13;;;7.80;99.90;;;;;;5047638;28;20064;-50
2022/04/08 11:25:09;;;;;;;4.97;1.98;;;7.80;99.90;;;;;;5032094;28;20026;-48
2022/04/08 11:27:35;;;;;;;10.23;2.00;;;7.70;99.90;;;;;;5031900;28;20370;-49
2022/04/08 11:30:06;;;;;;;57.15;32.63;;;7.80;99.90;;;;;;5032080;28;20509;-49
2022/04/08 11:32:32;;;;;;;47.88;27.42;;;7.90;99.90;;;;;;5047485;28;20116;-53
2022/04/08 11:34:57;;;;;;;2.30;2.15;;;7.90;99.90;;;;;;5031724;28;20096;-49
2022/04/08 11:37:29;;;;;;;3.03;1.55;;;7.80;99.90;;;;;;5031660;28;20079;-48
2022/04/08 11:39:58;;;;;;;3.55;2.10;;;7.70;99.90;;;;;;5032087;28;20040;-48
2022/04/08 11:42:25;;;;;;;3.97;1.98;;;7.70;99.90;;;;;;5031763;28;20413;-49
2022/04/08 11:44:51;;;;;;;4.95;1.83;;;7.60;99.90;;;;;;5031820;28;20048;-48
2022/04/08 11:47:17;;;;;;;6.07;2.50;;;7.60;99.90;;;;;;5031492;28;20505;-52
2022/04/08 11:49:43;;;;;;;4.63;2.33;;;7.60;99.90;;;;;;5031660;28;20040;-50
2022/04/08 11:52:09;;;;;;;4.10;1.60;;;7.60;99.90;;;;;;5031627;28;20029;-51
2022/04/08 11:54:39;;;;;;;2.65;1.88;;;7.70;99.90;;;;;;5031657;28;20044;-52
2022/04/08 11:57:07;;;;;;;7.70;2.30;;;7.70;99.90;;;;;;5031444;28;20477;-55
2022/04/08 11:59:34;;;;;;;4.10;2.20;;;7.70;99.90;;;;;;5031712;28;20113;-53
2022/04/08 12:02:00;;;;;;;3.67;2.15;;;7.80;99.90;;;;;;5031941;28;20053;-55
2022/04/08 12:04:26;;;;;;;4.70;2.22;;;7.80;99.90;;;;;;5031534;28;20069;-50
2022/04/08 12:06:52;;;;;;;2.67;1.25;;;7.90;99.90;;;;;;5030828;28;20030;-53
2022/04/08 12:09:22;;;;;;;3.75;1.60;;;8.00;99.90;;;;;;5031629;28;20507;-54
2022/04/08 12:11:48;;;;;;;3.20;1.52;;;8.10;99.90;;;;;;5031533;28;20033;-48
2022/04/08 12:14:14;;;;;;;2.30;1.33;;;8.00;99.90;;;;;;5031427;28;20029;-53
2022/04/08 12:16:41;;;;;;;5.47;1.35;;;7.90;99.90;;;;;;5031366;28;20036;-54
2022/04/08 12:19:08;;;;;;;3.70;1.45;;;7.80;99.90;;;;;;5031269;28;20053;-55
2022/04/08 12:21:35;;;;;;;3.35;1.20;;;7.90;99.90;;;;;;5031221;28;20120;-54
2022/04/08 12:24:03;;;;;;;5.57;3.42;;;7.90;99.90;;;;;;5035187;28;20029;-50
2022/04/08 12:26:31;;;;;;;6.53;2.92;;;7.80;99.90;;;;;;5035143;28;20526;-55
2022/04/08 12:29:14;;;;;;;11.68;4.18;;;7.80;99.90;;;;;;5035229;28;20022;-53
2022/04/08 12:31:47;;;;;;;4.00;1.88;;;7.90;99.90;;;;;;5035308;28;20444;-52
2022/04/08 12:34:14;;;;;;;4.95;1.77;;;7.80;99.90;;;;;;5035753;28;20079;-48
2022/04/08 12:36:43;;;;;;;3.83;2.00;;;7.90;99.90;;;;;;5035356;28;20022;-51
2022/04/08 12:39:10;;;;;;;3.00;1.80;;;7.80;99.90;;;;;;5035053;28;20045;-53
2022/04/08 12:41:43;;;;;;;6.93;1.70;;;7.90;99.90;;;;;;5034846;28;20516;-50
2022/04/08 12:44:10;;;;;;;3.40;1.40;;;7.80;99.90;;;;;;5035512;28;20433;-51
2022/04/08 12:46:36;;;;;;;3.17;1.65;;;7.70;99.90;;;;;;5035040;28;20057;-49
2022/04/08 12:49:02;;;;;;;3.58;1.42;;;7.70;99.90;;;;;;5034765;28;20032;-48
2022/04/08 12:51:28;;;;;;;2.33;1.40;;;7.60;99.90;;;;;;5034880;28;20033;-51
2022/04/08 12:53:54;;;;;;;2.83;1.60;;;7.60;99.90;;;;;;5034918;28;20029;-53
2022/04/08 12:56:20;;;;;;;2.42;1.50;;;7.60;99.90;;;;;;5035068;28;20100;-47
2022/04/08 12:58:46;;;;;;;1.77;1.67;;;7.50;99.90;;;;;;5034578;28;20541;-52